createdAt,value
2019-03-17T00:00:39.516Z,23.90
2019-03-17T00:04:17.929Z,20.00
2019-03-17T00:04:30.439Z,20.12
2019-03-17T00:05:22.235Z,22.35
2019-03-17T00:06:31.218Z,24.90
2019-03-17T00:07:53.288Z,25.20
2019-03-17T00:08:55.322Z,28.32
2019-03-17T00:10:02.094Z,18.85
2019-03-17T00:11:08.359Z,22.35
2019-03-17T00:12:13.773Z,22.87
2019-03-17T00:13:19.438Z,22.35
2019-03-17T00:14:23.721Z,22.50
2019-03-17T00:15:38.464Z,18.48
2019-03-17T00:16:42.689Z,22.50
2019-03-17T00:17:53.758Z,19.45
2019-03-17T00:20:04.567Z,24.37
2019-03-17T00:21:14.732Z,23.42
2019-03-17T00:22:32.469Z,26.42
2019-03-17T00:23:33.021Z,21.55
2019-03-17T00:24:35.325Z,23.77
2019-03-17T00:25:46.736Z,24.52
2019-03-17T00:26:57.956Z,20.52
2019-03-17T00:29:33.291Z,18.87
2019-03-17T00:30:58.549Z,22.13
2019-03-17T00:32:10.355Z,26.87
2019-03-17T00:33:07.287Z,20.57
2019-03-17T00:34:12.569Z,20.48
2019-03-17T00:35:19.581Z,16.42
2019-03-17T00:36:33.147Z,19.00
2019-03-17T00:37:36.198Z,19.07
2019-03-17T00:38:52.969Z,20.27
2019-03-17T00:40:11.277Z,19.92
2019-03-17T00:41:25.346Z,19.75
2019-03-17T00:42:26.071Z,21.02
2019-03-17T00:43:34.530Z,23.87
2019-03-17T00:44:43.790Z,25.10
2019-03-17T00:45:51.218Z,23.57
2019-03-17T00:47:01.031Z,18.73
2019-03-17T00:48:03.392Z,22.48
2019-03-17T00:49:07.737Z,19.57
2019-03-17T00:50:18.725Z,21.93
2019-03-17T00:52:36.706Z,20.25
2019-03-17T00:53:59.005Z,21.93
2019-03-17T00:55:07.962Z,22.02
2019-03-17T00:56:17.296Z,25.77
2019-03-17T00:57:46.491Z,22.82
2019-03-17T00:58:49.070Z,22.70
2019-03-17T00:59:58.547Z,23.47
2019-03-17T01:00:53.709Z,20.37
2019-03-17T01:02:04.941Z,21.07
2019-03-17T01:05:00.544Z,23.98
2019-03-17T01:06:16.120Z,21.33
2019-03-17T01:07:24.570Z,22.52
2019-03-17T01:08:37.097Z,21.55
2019-03-17T01:09:43.671Z,22.58
2019-03-17T01:10:48.093Z,22.42
2019-03-17T01:11:53.961Z,21.40
2019-03-17T01:13:04.270Z,25.97
2019-03-17T01:14:13.915Z,21.35
2019-03-17T01:15:26.289Z,23.67
2019-03-17T01:16:30.576Z,22.87
2019-03-17T01:17:44.075Z,22.80
2019-03-17T01:19:45.412Z,22.17
2019-03-17T01:20:07.947Z,21.27
2019-03-17T01:21:13.957Z,23.30
2019-03-17T01:22:29.320Z,24.27
2019-03-17T01:23:28.197Z,22.17
2019-03-17T01:24:32.393Z,19.15
2019-03-17T01:25:52.228Z,21.05
2019-03-17T01:26:44.868Z,20.60
2019-03-17T01:27:51.418Z,22.07
2019-03-17T01:29:03.145Z,22.00
2019-03-17T01:30:06.581Z,21.17
2019-03-17T01:31:10.903Z,20.23
2019-03-17T01:32:31.746Z,17.45
2019-03-17T01:33:39.158Z,20.10
2019-03-17T01:36:17.840Z,20.23
2019-03-17T01:37:27.728Z,18.35
2019-03-17T01:38:33.156Z,18.57
2019-03-17T01:39:37.257Z,19.92
2019-03-17T01:40:41.527Z,20.05
2019-03-17T01:41:49.987Z,21.42
2019-03-17T01:42:57.161Z,20.72
2019-03-17T01:44:01.334Z,15.95
2019-03-17T01:45:07.595Z,19.98
2019-03-17T01:46:20.268Z,20.05
2019-03-17T01:47:28.686Z,17.00
2019-03-17T01:48:35.695Z,19.17
2019-03-17T01:49:44.268Z,18.37
2019-03-17T01:50:48.408Z,21.85
2019-03-17T01:51:52.552Z,21.07
2019-03-17T01:52:57.104Z,19.90
2019-03-17T01:54:01.267Z,16.75
2019-03-17T01:55:08.144Z,17.23
2019-03-17T01:56:14.431Z,18.45
2019-03-17T01:57:21.510Z,18.15
2019-03-17T01:58:29.936Z,20.23
2019-03-17T01:59:35.724Z,17.70
2019-03-17T02:00:39.867Z,22.77
2019-03-17T02:01:44.060Z,18.17
2019-03-17T02:02:55.468Z,18.45
2019-03-17T02:03:59.665Z,19.23
2019-03-17T02:05:05.668Z,22.02
2019-03-17T02:06:12.034Z,18.20
2019-03-17T02:07:16.317Z,20.12
2019-03-17T02:08:20.618Z,19.17
2019-03-17T02:09:26.516Z,17.02
2019-03-17T02:10:33.880Z,19.25
2019-03-17T02:11:38.635Z,18.90
2019-03-17T02:12:48.113Z,18.67
2019-03-17T02:13:51.894Z,17.73
2019-03-17T02:14:56.160Z,20.48
2019-03-17T02:16:00.512Z,18.75
2019-03-17T02:17:04.824Z,19.82
2019-03-17T02:18:09.123Z,20.50
2019-03-17T02:19:13.328Z,17.40
2019-03-17T02:20:17.580Z,14.75
2019-03-17T02:21:22.938Z,16.73
2019-03-17T02:22:31.369Z,19.42
2019-03-17T02:23:35.682Z,18.27
2019-03-17T02:24:41.138Z,18.32
2019-03-17T02:25:49.547Z,21.48
2019-03-17T02:26:52.390Z,16.73
2019-03-17T02:27:58.205Z,17.57
2019-03-17T02:29:03.885Z,19.70
2019-03-17T02:30:13.458Z,16.87
2019-03-17T02:31:20.624Z,18.30
2019-03-17T02:32:24.882Z,19.90
2019-03-17T02:33:29.147Z,16.75
2019-03-17T02:34:34.937Z,18.17
2019-03-17T02:35:40.795Z,18.37
2019-03-17T02:36:45.102Z,16.97
2019-03-17T02:37:49.391Z,17.65
2019-03-17T02:38:53.803Z,19.65
2019-03-17T02:39:58.268Z,17.52
2019-03-17T02:41:09.356Z,18.17
2019-03-17T02:42:13.586Z,17.35
2019-03-17T02:43:20.042Z,16.20
2019-03-17T02:44:24.279Z,18.37
2019-03-17T02:45:31.357Z,16.57
2019-03-17T02:46:39.636Z,19.12
2019-03-17T02:47:45.716Z,16.65
2019-03-17T02:48:50.115Z,19.05
2019-03-17T02:49:54.393Z,17.25
2019-03-17T02:50:58.682Z,16.32
2019-03-17T02:52:04.494Z,20.05
2019-03-17T02:53:08.788Z,18.00
2019-03-17T02:54:14.027Z,15.32
2019-03-17T02:55:18.371Z,18.90
2019-03-17T02:56:22.579Z,20.12
2019-03-17T02:57:26.779Z,19.07
2019-03-17T02:58:32.389Z,12.93
2019-03-17T02:59:36.451Z,19.85
2019-03-17T03:00:44.214Z,13.90
2019-03-17T03:01:48.421Z,18.23
2019-03-17T03:02:52.510Z,17.32
2019-03-17T03:03:56.718Z,20.70
2019-03-17T03:05:00.870Z,18.50
2019-03-17T03:06:05.172Z,17.77
2019-03-17T03:07:09.335Z,18.92
2019-03-17T03:08:15.131Z,18.73
2019-03-17T03:09:19.239Z,17.67
2019-03-17T03:10:23.944Z,19.77
2019-03-17T03:11:31.266Z,18.48
2019-03-17T03:12:36.130Z,21.93
2019-03-17T03:13:42.605Z,18.42
2019-03-17T03:14:47.476Z,15.88
2019-03-17T03:15:59.034Z,17.60
2019-03-17T03:17:03.266Z,18.35
2019-03-17T03:18:07.493Z,17.40
2019-03-17T03:19:11.573Z,20.23
2019-03-17T03:20:16.821Z,21.02
2019-03-17T03:21:20.967Z,17.48
2019-03-17T03:22:25.050Z,18.95
2019-03-17T03:23:29.245Z,22.75
2019-03-17T03:24:33.318Z,18.42
2019-03-17T03:25:38.586Z,17.45
2019-03-17T03:26:42.741Z,24.15
2019-03-17T03:27:46.801Z,20.00
2019-03-17T03:28:50.996Z,21.60
2019-03-17T03:29:55.065Z,20.57
2019-03-17T03:30:59.308Z,20.00
2019-03-17T03:32:04.945Z,18.00
2019-03-17T03:33:09.037Z,22.62
2019-03-17T03:34:13.132Z,21.97
2019-03-17T03:35:17.204Z,22.25
2019-03-17T03:36:21.286Z,19.10
2019-03-17T03:37:25.491Z,21.77
2019-03-17T03:38:29.572Z,19.98
2019-03-17T03:39:33.676Z,22.62
2019-03-17T03:40:39.290Z,19.87
2019-03-17T03:41:45.012Z,21.57
2019-03-17T03:42:49.208Z,21.12
2019-03-17T03:43:53.390Z,20.55
2019-03-17T03:44:57.447Z,19.73
2019-03-17T03:46:01.525Z,20.90
2019-03-17T03:47:07.142Z,21.10
2019-03-17T03:48:11.867Z,20.52
2019-03-17T03:49:17.309Z,23.20
2019-03-17T03:50:21.456Z,21.85
2019-03-17T03:51:25.529Z,21.23
2019-03-17T03:52:29.615Z,19.75
2019-03-17T03:53:33.711Z,23.90
2019-03-17T03:54:37.881Z,21.00
2019-03-17T03:55:42.533Z,21.65
2019-03-17T03:56:46.677Z,22.27
2019-03-17T03:57:50.813Z,24.63
2019-03-17T03:58:55.984Z,22.17
2019-03-17T04:00:00.215Z,21.90
2019-03-17T04:01:04.800Z,24.12
2019-03-17T04:02:09.476Z,22.37
2019-03-17T04:03:14.239Z,23.57
2019-03-17T04:04:18.342Z,22.50
2019-03-17T04:05:22.626Z,24.12
2019-03-17T04:06:27.319Z,22.35
2019-03-17T04:07:32.149Z,20.12
2019-03-17T04:08:36.302Z,25.65
2019-03-17T04:09:40.362Z,22.85
2019-03-17T04:10:44.539Z,23.02
2019-03-17T04:11:48.593Z,19.62
2019-03-17T04:12:52.681Z,20.55
2019-03-17T04:13:56.893Z,22.45
2019-03-17T04:15:01.777Z,23.50
2019-03-17T04:16:06.035Z,23.47
2019-03-17T04:17:10.229Z,23.45
2019-03-17T04:18:14.441Z,25.68
2019-03-17T04:19:20.139Z,21.82
2019-03-17T04:20:24.241Z,20.88
2019-03-17T04:21:28.376Z,24.25
2019-03-17T04:22:32.516Z,21.48
2019-03-17T04:23:40.388Z,24.18
2019-03-17T04:24:45.198Z,20.37
2019-03-17T04:25:49.451Z,23.05
2019-03-17T04:26:55.075Z,21.10
2019-03-17T04:27:59.236Z,23.80
2019-03-17T04:29:03.396Z,20.72
2019-03-17T04:30:12.715Z,24.00
2019-03-17T04:31:16.810Z,26.62
2019-03-17T04:32:25.622Z,26.00
2019-03-17T04:33:29.789Z,20.92
2019-03-17T04:34:34.764Z,25.10
2019-03-17T04:35:38.906Z,21.50
2019-03-17T04:36:43.067Z,26.35
2019-03-17T04:37:47.196Z,24.05
2019-03-17T04:38:51.424Z,27.30
2019-03-17T04:39:55.731Z,22.70
2019-03-17T04:40:59.927Z,25.82
2019-03-17T04:42:04.244Z,24.43
2019-03-17T04:43:09.599Z,26.42
2019-03-17T04:44:20.722Z,25.75
2019-03-17T04:45:20.439Z,23.98
2019-03-17T04:46:27.085Z,25.68
2019-03-17T04:47:37.256Z,28.05
2019-03-17T04:48:43.062Z,28.12
2019-03-17T04:49:47.702Z,25.55
2019-03-17T04:50:56.546Z,22.05
2019-03-17T04:51:59.803Z,22.52
2019-03-17T04:53:05.354Z,27.58
2019-03-17T04:54:19.098Z,26.15
2019-03-17T04:55:28.106Z,24.15
2019-03-17T04:56:36.562Z,25.50
2019-03-17T04:57:51.107Z,25.57
2019-03-17T04:59:00.328Z,24.92
2019-03-17T05:00:09.610Z,25.68
2019-03-17T05:01:14.417Z,24.37
2019-03-17T05:02:21.205Z,25.25
2019-03-17T05:03:25.337Z,25.60
2019-03-17T05:04:30.723Z,25.95
2019-03-17T05:05:36.116Z,26.27
2019-03-17T05:06:51.986Z,27.22
2019-03-17T05:07:50.965Z,25.80
2019-03-17T05:08:55.207Z,23.67
2019-03-17T05:10:03.719Z,24.37
2019-03-17T05:11:13.556Z,25.27
2019-03-17T05:12:16.907Z,29.25
2019-03-17T05:13:23.190Z,25.52
2019-03-17T05:14:31.873Z,26.50
2019-03-17T05:15:38.034Z,27.48
2019-03-17T05:16:51.762Z,25.75
2019-03-17T05:17:57.433Z,27.22
2019-03-17T05:20:26.489Z,25.48
2019-03-17T05:21:32.064Z,26.00
2019-03-17T05:22:37.358Z,24.25
2019-03-17T05:23:48.971Z,23.55
2019-03-17T05:25:02.584Z,24.55
2019-03-17T05:26:10.359Z,23.98
2019-03-17T05:27:16.708Z,25.43
2019-03-17T05:28:23.685Z,23.92
2019-03-17T05:29:30.475Z,24.57
2019-03-17T05:30:35.601Z,26.50
2019-03-17T05:31:46.266Z,26.57
2019-03-17T05:32:52.119Z,24.35
2019-03-17T05:34:05.008Z,26.15
2019-03-17T05:35:18.271Z,22.02
2019-03-17T05:36:23.904Z,25.65
2019-03-17T05:37:38.893Z,24.87
2019-03-17T05:38:45.303Z,25.77
2019-03-17T05:39:55.354Z,22.52
2019-03-17T05:40:59.717Z,21.85
2019-03-17T05:42:05.139Z,22.25
2019-03-17T05:43:18.100Z,24.72
2019-03-17T05:44:24.784Z,23.70
2019-03-17T05:45:33.054Z,24.87
2019-03-17T05:46:43.418Z,24.40
2019-03-17T05:47:58.847Z,21.77
2019-03-17T05:49:09.497Z,25.08
2019-03-17T05:50:20.834Z,23.87
2019-03-17T05:51:22.932Z,25.35
2019-03-17T05:52:40.660Z,22.30
2019-03-17T05:55:18.612Z,21.27
2019-03-17T05:56:33.203Z,24.55
2019-03-17T05:57:44.703Z,22.60
2019-03-17T05:58:55.956Z,22.70
2019-03-17T06:00:04.201Z,24.82
2019-03-17T06:01:03.846Z,23.70
2019-03-17T06:02:13.944Z,23.20
2019-03-17T06:03:25.063Z,24.85
2019-03-17T06:04:39.104Z,26.55
2019-03-17T06:05:56.835Z,24.80
2019-03-17T06:07:03.378Z,21.68
2019-03-17T06:08:21.036Z,23.83
2019-03-17T06:09:29.914Z,26.30
2019-03-17T06:10:40.096Z,23.35
2019-03-17T06:12:07.343Z,23.52
2019-03-17T06:13:04.297Z,21.55
2019-03-17T06:17:17.207Z,22.50
2019-03-17T06:17:36.447Z,23.67
2019-03-17T06:20:07.308Z,22.82
2019-03-17T06:20:56.857Z,20.90
2019-03-17T06:22:06.506Z,24.85
2019-03-17T06:23:18.973Z,23.25
2019-03-17T06:24:31.392Z,26.00
2019-03-17T06:25:44.454Z,23.02
2019-03-17T06:28:22.712Z,24.00
2019-03-17T06:29:31.598Z,21.40
2019-03-17T06:30:49.169Z,22.62
2019-03-17T06:32:14.359Z,22.15
2019-03-17T06:34:18.221Z,24.45
2019-03-17T06:34:57.432Z,24.70
2019-03-17T06:36:06.605Z,24.35
2019-03-17T06:38:36.418Z,25.32
2019-03-17T06:39:46.544Z,24.55
2019-03-17T06:41:11.036Z,23.80
2019-03-17T06:42:26.415Z,23.90
2019-03-17T06:43:32.308Z,23.10
2019-03-17T06:44:56.700Z,23.87
2019-03-17T06:46:05.532Z,22.15
2019-03-17T06:47:34.183Z,23.27
2019-03-17T06:49:45.922Z,21.97
2019-03-17T06:51:07.331Z,22.85
2019-03-17T06:52:53.367Z,23.77
2019-03-17T06:53:19.277Z,21.50
2019-03-17T06:54:42.421Z,25.27
2019-03-17T06:57:34.618Z,24.12
2019-03-17T06:58:25.290Z,23.20
2019-03-17T07:00:12.093Z,24.98
2019-03-17T07:01:54.832Z,23.02
2019-03-17T07:04:59.957Z,28.23
2019-03-17T07:07:14.709Z,23.90
2019-03-17T07:07:19.203Z,22.62
2019-03-17T07:08:40.055Z,24.23
2019-03-17T07:09:36.807Z,23.35
2019-03-17T07:13:51.361Z,24.90
2019-03-17T07:15:25.001Z,22.30
2019-03-17T07:16:32.939Z,22.52
2019-03-17T07:17:45.991Z,22.00
2019-03-17T07:19:02.603Z,25.10
2019-03-17T07:20:08.409Z,19.52
2019-03-17T07:21:35.359Z,23.70
2019-03-17T07:22:35.084Z,21.93
2019-03-17T07:23:46.741Z,21.65
2019-03-17T07:26:24.107Z,20.60
2019-03-17T07:28:30.302Z,20.75
2019-03-17T07:29:15.116Z,21.23
2019-03-17T07:31:35.792Z,20.30
2019-03-17T07:33:32.385Z,19.87
2019-03-17T07:34:05.969Z,21.05
2019-03-17T07:35:20.913Z,19.65
2019-03-17T07:39:12.891Z,21.60
2019-03-17T07:40:19.307Z,20.82
2019-03-17T07:43:13.398Z,18.70
2019-03-17T07:44:21.283Z,18.42
2019-03-17T07:45:47.934Z,19.82
2019-03-17T07:48:01.361Z,17.40
2019-03-17T07:49:16.975Z,18.25
2019-03-17T07:51:31.368Z,17.30
2019-03-17T07:52:05.580Z,16.20
2019-03-17T07:52:56.995Z,17.17
2019-03-17T07:53:59.193Z,16.77
2019-03-17T07:56:35.787Z,17.57
2019-03-17T07:58:07.883Z,16.10
2019-03-17T08:01:39.303Z,20.55
2019-03-17T08:02:48.385Z,15.53
2019-03-17T08:04:11.625Z,16.50
2019-03-17T08:05:20.847Z,15.03
2019-03-17T08:06:32.939Z,18.27
2019-03-17T08:07:48.305Z,15.18
2019-03-17T08:08:57.745Z,15.75
2019-03-17T08:10:06.673Z,15.30
2019-03-17T08:11:23.167Z,15.23
2019-03-17T08:12:34.176Z,13.72
2019-03-17T08:13:39.650Z,14.55
2019-03-17T08:14:45.928Z,14.53
2019-03-17T08:16:40.160Z,14.03
2019-03-17T08:17:10.206Z,12.78
2019-03-17T08:18:22.813Z,14.28
2019-03-17T08:19:32.187Z,14.05
2019-03-17T08:20:43.612Z,13.83
2019-03-17T08:23:26.597Z,15.15
2019-03-17T08:25:33.353Z,11.93
2019-03-17T08:27:39.941Z,15.95
2019-03-17T08:27:56.433Z,13.48
2019-03-17T08:29:05.751Z,14.70
2019-03-17T08:30:18.457Z,13.22
2019-03-17T08:31:33.377Z,12.00
2019-03-17T08:32:45.826Z,12.13
2019-03-17T08:33:55.350Z,13.05
2019-03-17T08:35:08.192Z,13.28
2019-03-17T08:36:41.161Z,11.28
2019-03-17T08:39:15.868Z,14.47
2019-03-17T08:40:28.552Z,11.57
2019-03-17T08:41:57.642Z,15.85
2019-03-17T08:43:13.875Z,12.65
2019-03-17T08:46:22.392Z,11.48
2019-03-17T08:46:43.148Z,13.28
2019-03-17T08:47:57.985Z,12.47
2019-03-17T08:50:39.626Z,13.35
2019-03-17T08:51:48.493Z,11.97
2019-03-17T08:54:25.628Z,12.40
2019-03-17T08:54:26.623Z,14.50
2019-03-17T08:55:33.036Z,12.75
2019-03-17T08:57:28.980Z,12.93
2019-03-17T08:57:50.587Z,14.55
2019-03-17T08:59:04.856Z,18.10
2019-03-17T09:00:25.063Z,13.40
2019-03-17T09:01:31.796Z,12.50
2019-03-17T09:02:41.813Z,11.33
2019-03-17T09:03:48.940Z,11.57
2019-03-17T09:04:55.627Z,11.45
2019-03-17T09:06:02.494Z,11.63
2019-03-17T09:07:07.651Z,12.50
2019-03-17T09:08:18.931Z,12.43
2019-03-17T09:09:23.861Z,10.85
2019-03-17T09:10:31.227Z,12.28
2019-03-17T09:11:39.547Z,11.43
2019-03-17T09:12:47.736Z,11.63
2019-03-17T09:13:53.745Z,13.80
2019-03-17T09:15:02.800Z,11.83
2019-03-17T09:16:13.435Z,11.53
2019-03-17T09:17:23.408Z,12.20
2019-03-17T09:18:38.902Z,13.28
2019-03-17T09:19:41.436Z,10.63
2019-03-17T09:20:52.051Z,15.68
2019-03-17T09:21:58.045Z,15.48
2019-03-17T09:24:22.423Z,12.00
2019-03-17T09:25:38.905Z,14.28
2019-03-17T09:26:46.228Z,22.42
2019-03-17T09:28:01.261Z,10.93
2019-03-17T09:29:09.658Z,14.55
2019-03-17T09:30:22.305Z,14.55
2019-03-17T09:31:37.663Z,11.83
2019-03-17T09:32:36.705Z,11.35
2019-03-17T09:33:41.129Z,10.70
2019-03-17T09:34:53.171Z,11.85
2019-03-17T09:39:29.386Z,9.98
2019-03-17T09:39:57.481Z,11.35
2019-03-17T09:41:03.018Z,11.53
2019-03-17T09:42:16.281Z,11.55
2019-03-17T09:43:38.806Z,10.88
2019-03-17T09:44:43.811Z,11.38
2019-03-17T09:47:29.651Z,9.85
2019-03-17T09:48:41.410Z,10.70
2019-03-17T09:49:59.944Z,8.88
2019-03-17T09:50:58.662Z,10.45
2019-03-17T09:52:08.454Z,9.23
2019-03-17T09:53:29.878Z,9.30
2019-03-17T09:54:35.460Z,9.83
2019-03-17T09:55:42.913Z,8.50
2019-03-17T09:56:54.120Z,7.95
2019-03-17T09:58:00.747Z,8.53
2019-03-17T09:59:09.563Z,8.23
2019-03-17T10:00:39.319Z,8.63
2019-03-17T10:01:49.258Z,6.65
2019-03-17T10:03:00.094Z,8.48
2019-03-17T10:04:16.008Z,11.38
2019-03-17T10:05:34.058Z,8.68
2019-03-17T10:06:38.368Z,7.95
2019-03-17T10:07:47.947Z,7.67
2019-03-17T10:10:29.209Z,6.47
2019-03-17T10:11:44.975Z,10.03
2019-03-17T10:12:56.043Z,9.73
2019-03-17T10:14:11.309Z,7.17
2019-03-17T10:15:27.735Z,36.33
2019-03-17T10:16:34.909Z,25.40
2019-03-17T10:17:52.351Z,14.63
2019-03-17T10:19:16.560Z,8.40
2019-03-17T10:20:41.966Z,7.75
2019-03-17T10:21:48.159Z,7.05
2019-03-17T10:22:59.490Z,9.48
2019-03-17T10:24:05.020Z,10.90
2019-03-17T10:25:20.175Z,8.13
2019-03-17T10:26:30.833Z,9.50
2019-03-17T10:27:44.646Z,99.77
2019-03-17T10:28:57.998Z,24.92
2019-03-17T10:30:54.061Z,30.80
2019-03-17T10:31:27.708Z,16.37
2019-03-17T10:32:43.356Z,10.53
2019-03-17T10:33:55.445Z,9.43
2019-03-17T10:35:05.790Z,11.00
2019-03-17T10:36:08.050Z,11.70
2019-03-17T10:37:16.326Z,9.15
2019-03-17T10:38:35.669Z,8.58
2019-03-17T10:39:33.687Z,10.78
2019-03-17T10:40:40.954Z,10.45
2019-03-17T10:41:46.760Z,9.85
2019-03-17T10:42:53.865Z,8.58
2019-03-17T10:44:06.642Z,12.47
2019-03-17T10:45:21.607Z,9.48
2019-03-17T10:46:29.352Z,14.83
2019-03-17T10:49:03.810Z,13.58
2019-03-17T10:50:16.950Z,9.05
2019-03-17T10:51:21.370Z,8.53
2019-03-17T10:53:55.066Z,8.40
2019-03-17T10:55:02.308Z,8.13
2019-03-17T10:56:06.459Z,12.18
2019-03-17T10:57:13.660Z,9.18
2019-03-17T10:58:23.725Z,9.45
2019-03-17T10:59:32.589Z,10.90
2019-03-17T11:00:38.236Z,8.28
2019-03-17T11:01:42.489Z,22.93
2019-03-17T11:02:46.751Z,14.53
2019-03-17T11:03:52.388Z,9.15
2019-03-17T11:04:59.770Z,6.65
2019-03-17T11:06:09.208Z,13.40
2019-03-17T11:07:16.272Z,11.53
2019-03-17T11:08:24.873Z,8.63
2019-03-17T11:09:31.439Z,18.77
2019-03-17T11:10:38.267Z,8.80
2019-03-17T11:11:43.125Z,8.50
2019-03-17T11:12:49.684Z,10.35
2019-03-17T11:13:54.139Z,7.78
2019-03-17T11:15:00.381Z,6.80
2019-03-17T11:16:04.572Z,7.12
2019-03-17T11:17:17.847Z,8.75
2019-03-17T11:18:24.480Z,6.60
2019-03-17T11:19:34.079Z,9.40
2019-03-17T11:20:38.281Z,8.18
2019-03-17T11:21:43.978Z,8.65
2019-03-17T11:22:49.238Z,8.05
2019-03-17T11:23:54.555Z,7.40
2019-03-17T11:24:58.644Z,8.00
2019-03-17T11:26:05.817Z,7.00
2019-03-17T11:27:09.952Z,8.28
2019-03-17T11:28:15.828Z,13.03
2019-03-17T11:29:21.118Z,10.32
2019-03-17T11:30:25.257Z,11.12
2019-03-17T11:31:29.466Z,6.30
2019-03-17T11:32:37.009Z,8.23
2019-03-17T11:33:44.068Z,9.38
2019-03-17T11:34:49.604Z,6.70
2019-03-17T11:36:07.832Z,6.67
2019-03-17T11:37:23.628Z,7.28
2019-03-17T11:38:29.665Z,5.70
2019-03-17T11:39:53.108Z,6.20
2019-03-17T11:41:04.995Z,6.53
2019-03-17T11:42:25.274Z,5.70
2019-03-17T11:43:33.116Z,6.22
2019-03-17T11:44:40.244Z,5.95
2019-03-17T11:45:47.656Z,5.83
2019-03-17T11:46:59.626Z,11.63
2019-03-17T11:48:15.792Z,6.87
2019-03-17T11:49:32.278Z,6.10
2019-03-17T11:50:36.436Z,10.72
2019-03-17T11:51:42.467Z,8.88
2019-03-17T11:54:19.062Z,7.80
2019-03-17T11:54:25.276Z,7.60
2019-03-17T11:55:31.976Z,7.55
2019-03-17T11:56:41.249Z,24.37
2019-03-17T11:57:48.650Z,6.17
2019-03-17T11:58:58.674Z,5.47
2019-03-17T12:00:22.934Z,6.37
2019-03-17T12:01:28.438Z,7.10
2019-03-17T12:02:37.703Z,7.22
2019-03-17T12:03:47.771Z,10.55
2019-03-17T12:04:53.883Z,8.58
2019-03-17T12:06:19.750Z,6.60
2019-03-17T12:07:25.772Z,34.78
2019-03-17T12:08:37.323Z,19.12
2019-03-17T12:09:49.938Z,10.13
2019-03-17T12:10:51.843Z,33.95
2019-03-17T12:12:07.107Z,36.40
2019-03-17T12:13:11.634Z,5.62
2019-03-17T12:14:22.946Z,7.20
2019-03-17T12:15:42.096Z,7.78
2019-03-17T12:16:49.851Z,14.60
2019-03-17T12:17:58.026Z,5.78
2019-03-17T12:19:07.049Z,9.65
2019-03-17T12:20:23.208Z,7.67
2019-03-17T12:21:25.594Z,17.52
2019-03-17T12:22:47.796Z,6.50
2019-03-17T12:23:50.152Z,6.53
2019-03-17T12:25:00.409Z,8.95
2019-03-17T12:26:11.691Z,10.18
2019-03-17T12:27:33.800Z,7.95
2019-03-17T12:28:38.021Z,12.88
2019-03-17T12:29:49.639Z,6.97
2019-03-17T12:31:27.356Z,11.80
2019-03-17T12:32:15.691Z,5.25
2019-03-17T12:33:26.964Z,6.58
2019-03-17T12:34:41.814Z,6.47
2019-03-17T12:37:25.582Z,6.65
2019-03-17T12:38:29.403Z,9.43
2019-03-17T12:39:43.595Z,7.17
2019-03-17T12:40:50.256Z,7.28
2019-03-17T12:41:58.348Z,5.12
2019-03-17T12:44:17.209Z,3.87
2019-03-17T12:45:26.324Z,10.63
2019-03-17T12:46:43.961Z,9.65
2019-03-17T12:47:49.500Z,4.00
2019-03-17T12:49:05.934Z,5.50
2019-03-17T12:50:08.233Z,4.20
2019-03-17T12:51:19.825Z,4.60
2019-03-17T12:52:30.296Z,5.22
2019-03-17T12:53:40.951Z,8.05
2019-03-17T12:54:49.969Z,3.42
2019-03-17T12:55:59.496Z,4.90
2019-03-17T12:57:07.384Z,5.42
2019-03-17T12:58:30.774Z,4.37
2019-03-17T12:59:40.008Z,6.45
2019-03-17T13:00:47.288Z,5.92
2019-03-17T13:01:59.566Z,4.97
2019-03-17T13:03:05.564Z,6.80
2019-03-17T13:04:17.883Z,5.67
2019-03-17T13:05:26.877Z,5.15
2019-03-17T13:06:33.160Z,4.83
2019-03-17T13:07:46.489Z,6.30
2019-03-17T13:09:04.537Z,5.15
2019-03-17T13:10:14.638Z,4.87
2019-03-17T13:11:18.364Z,6.47
2019-03-17T13:12:29.870Z,4.12
2019-03-17T13:13:52.832Z,5.12
2019-03-17T13:15:04.946Z,5.33
2019-03-17T13:16:19.066Z,8.10
2019-03-17T13:17:18.012Z,6.10
2019-03-17T13:19:16.241Z,6.60
2019-03-17T13:19:43.656Z,6.55
2019-03-17T13:20:56.333Z,14.03
2019-03-17T13:22:07.446Z,9.85
2019-03-17T13:23:18.123Z,29.25
2019-03-17T13:24:30.795Z,14.50
2019-03-17T13:26:47.792Z,12.05
2019-03-17T13:27:55.578Z,5.75
2019-03-17T13:29:11.501Z,7.70
2019-03-17T13:30:27.251Z,10.20
2019-03-17T13:31:41.820Z,29.45
2019-03-17T13:32:57.251Z,7.15
2019-03-17T13:34:15.414Z,4.95
2019-03-17T13:35:13.958Z,6.30
2019-03-17T13:36:40.897Z,4.08
2019-03-17T13:37:42.252Z,8.78
2019-03-17T13:38:50.282Z,14.15
2019-03-17T13:40:39.665Z,6.97
2019-03-17T13:41:46.635Z,5.67
2019-03-17T13:44:11.862Z,8.13
2019-03-17T13:45:23.230Z,4.47
2019-03-17T13:46:33.756Z,4.40
2019-03-17T13:47:44.887Z,3.62
2019-03-17T13:49:47.179Z,5.78
2019-03-17T13:50:18.085Z,6.35
2019-03-17T13:51:44.014Z,7.03
2019-03-17T13:52:40.315Z,14.03
2019-03-17T13:53:57.828Z,8.73
2019-03-17T13:55:48.024Z,12.90
2019-03-17T13:57:49.067Z,6.33
2019-03-17T13:59:17.460Z,6.08
2019-03-17T14:00:02.802Z,8.65
2019-03-17T14:01:11.707Z,8.55
2019-03-17T14:02:17.495Z,9.00
2019-03-17T14:04:00.818Z,6.65
2019-03-17T14:04:55.695Z,4.50
2019-03-17T14:05:47.473Z,6.33
2019-03-17T14:06:53.313Z,5.85
2019-03-17T14:08:05.855Z,5.95
2019-03-17T14:09:24.389Z,5.72
2019-03-17T14:10:22.778Z,4.92
2019-03-17T14:11:36.695Z,5.30
2019-03-17T14:12:41.675Z,3.85
2019-03-17T14:13:53.059Z,4.53
2019-03-17T14:15:00.477Z,8.40
2019-03-17T14:16:15.599Z,6.33
2019-03-17T14:17:21.535Z,3.58
2019-03-17T14:18:29.021Z,3.70
2019-03-17T14:19:36.000Z,8.28
2019-03-17T14:20:47.181Z,4.45
2019-03-17T14:21:52.911Z,4.83
2019-03-17T14:23:15.050Z,4.60
2019-03-17T14:24:21.447Z,4.22
2019-03-17T14:25:37.286Z,4.60
2019-03-17T14:26:42.187Z,4.67
2019-03-17T14:27:52.482Z,4.12
2019-03-17T14:29:07.401Z,4.42
2019-03-17T14:30:32.357Z,3.65
2019-03-17T14:31:27.576Z,3.58
2019-03-17T14:32:39.641Z,6.12
2019-03-17T14:33:47.106Z,3.10
2019-03-17T14:34:56.326Z,7.45
2019-03-17T14:37:16.495Z,3.40
2019-03-17T14:38:29.905Z,3.87
2019-03-17T14:39:46.635Z,3.77
2019-03-17T14:40:57.222Z,4.45
2019-03-17T14:42:00.552Z,5.58
2019-03-17T14:43:04.836Z,3.62
2019-03-17T14:44:09.723Z,4.47
2019-03-17T14:45:16.171Z,3.22
2019-03-17T14:46:24.881Z,4.12
2019-03-17T14:47:43.387Z,4.80
2019-03-17T14:49:55.821Z,4.30
2019-03-17T14:51:00.592Z,5.17
2019-03-17T14:52:11.311Z,5.55
2019-03-17T14:53:13.406Z,5.00
2019-03-17T14:54:19.821Z,6.75
2019-03-17T14:55:30.209Z,5.15
2019-03-17T14:56:44.247Z,11.00
2019-03-17T14:57:43.232Z,6.95
2019-03-17T14:58:50.901Z,3.52
2019-03-17T14:59:54.838Z,4.10
2019-03-17T15:01:00.674Z,4.62
2019-03-17T15:02:08.875Z,4.08
2019-03-17T15:03:12.937Z,4.90
2019-03-17T15:04:17.039Z,5.70
2019-03-17T15:05:25.659Z,5.20
2019-03-17T15:06:30.053Z,3.55
2019-03-17T15:07:35.825Z,2.87
2019-03-17T15:08:42.484Z,3.72
2019-03-17T15:09:46.695Z,4.72
2019-03-17T15:10:50.931Z,3.67
2019-03-17T15:11:56.382Z,5.35
2019-03-17T15:13:13.587Z,4.03
2019-03-17T15:14:08.276Z,4.65
2019-03-17T15:15:14.653Z,5.55
2019-03-17T15:16:20.224Z,6.83
2019-03-17T15:17:24.381Z,4.17
2019-03-17T15:18:28.587Z,4.10
2019-03-17T15:19:32.683Z,4.70
2019-03-17T15:20:36.989Z,4.87
2019-03-17T15:21:42.982Z,7.83
2019-03-17T15:22:51.328Z,4.78
2019-03-17T15:23:56.353Z,4.05
2019-03-17T15:25:04.031Z,3.65
2019-03-17T15:26:12.264Z,4.55
2019-03-17T15:27:17.395Z,3.45
2019-03-17T15:28:24.445Z,4.45
2019-03-17T15:29:28.642Z,5.53
2019-03-17T15:30:37.543Z,5.62
2019-03-17T15:31:41.676Z,4.05
2019-03-17T15:32:48.395Z,4.67
2019-03-17T15:33:52.555Z,5.12
2019-03-17T15:34:57.938Z,4.05
2019-03-17T15:36:03.763Z,3.40
2019-03-17T15:37:08.885Z,4.37
2019-03-17T15:38:13.147Z,4.58
2019-03-17T15:40:45.775Z,4.53
2019-03-17T15:41:51.443Z,5.45
2019-03-17T15:42:57.159Z,5.40
2019-03-17T15:44:02.897Z,8.45
2019-03-17T15:45:15.573Z,4.75
2019-03-17T15:46:19.653Z,3.75
2019-03-17T15:47:26.360Z,3.90
2019-03-17T15:48:37.092Z,4.83
2019-03-17T15:49:37.984Z,4.55
2019-03-17T15:50:42.306Z,5.25
2019-03-17T15:51:46.632Z,3.72
2019-03-17T15:52:56.315Z,3.47
2019-03-17T15:54:00.549Z,3.92
2019-03-17T15:55:11.169Z,4.78
2019-03-17T15:56:15.508Z,3.27
2019-03-17T15:57:22.169Z,5.92
2019-03-17T15:58:26.451Z,7.85
2019-03-17T15:59:33.755Z,5.08
2019-03-17T16:00:38.005Z,7.50
2019-03-17T16:01:42.373Z,5.53